createdAt,value
2019-03-10T00:01:44.755Z,90.72
2019-03-10T00:04:14.959Z,85.53
2019-03-10T00:06:45.506Z,85.42
2019-03-10T00:09:16.849Z,92.40
2019-03-10T00:11:47.170Z,92.02
2019-03-10T00:14:17.661Z,105.20
2019-03-10T00:16:50.380Z,94.17
2019-03-10T00:19:21.012Z,88.27
2019-03-10T00:21:51.436Z,94.30
2019-03-10T00:24:22.372Z,87.20
2019-03-10T00:26:53.051Z,96.45
2019-03-10T00:29:26.183Z,97.97
2019-03-10T00:31:57.540Z,98.37
2019-03-10T00:34:27.950Z,102.90
2019-03-10T00:37:00.030Z,100.00
2019-03-10T00:39:42.635Z,106.75
2019-03-10T00:42:26.136Z,111.50
2019-03-10T00:45:33.189Z,114.05
2019-03-10T00:48:30.917Z,112.72
2019-03-10T00:51:18.856Z,107.63
2019-03-10T00:53:49.792Z,99.35
2019-03-10T00:56:20.116Z,105.05
2019-03-10T00:58:50.850Z,103.40
2019-03-10T01:01:21.480Z,102.12
2019-03-10T01:03:52.118Z,99.05
2019-03-10T01:06:23.457Z,106.43
2019-03-10T01:08:54.159Z,104.78
2019-03-10T01:11:24.919Z,102.45
2019-03-10T01:13:55.652Z,101.07
2019-03-10T01:16:26.278Z,100.92
2019-03-10T01:18:56.911Z,118.35
2019-03-10T01:21:28.191Z,105.30
2019-03-10T01:23:59.401Z,98.67
2019-03-10T01:26:30.029Z,109.27
2019-03-10T01:29:00.767Z,104.60
2019-03-10T01:31:57.609Z,105.55
2019-03-10T01:34:34.076Z,105.60
2019-03-10T01:37:08.482Z,104.35
2019-03-10T01:39:39.036Z,96.55
2019-03-10T01:42:09.852Z,99.03
2019-03-10T01:44:40.412Z,104.05
2019-03-10T01:47:11.582Z,99.20
2019-03-10T01:49:42.367Z,103.62
2019-03-10T01:52:13.090Z,97.00
2019-03-10T01:54:43.680Z,99.62
2019-03-10T01:57:14.249Z,108.25
2019-03-10T01:59:45.513Z,85.85
2019-03-10T02:02:24.912Z,91.08
2019-03-10T02:04:48.631Z,84.32
2019-03-10T02:07:19.433Z,84.17
2019-03-10T02:09:50.160Z,86.75
2019-03-10T02:12:21.646Z,86.35
2019-03-10T02:14:53.996Z,90.65
2019-03-10T02:17:24.410Z,91.72
2019-03-10T02:19:56.782Z,89.97
2019-03-10T02:22:27.407Z,92.60
2019-03-10T02:24:57.981Z,103.02
2019-03-10T02:27:29.487Z,93.92
2019-03-10T02:29:59.913Z,89.20
2019-03-10T02:32:31.364Z,94.92
2019-03-10T02:35:03.951Z,92.62
2019-03-10T02:37:35.005Z,86.57
2019-03-10T02:40:06.808Z,93.40
2019-03-10T02:42:37.060Z,90.30
2019-03-10T02:45:09.795Z,91.60
2019-03-10T02:47:40.986Z,89.25
2019-03-10T02:50:11.817Z,89.00
2019-03-10T02:52:42.421Z,88.92
2019-03-10T02:55:13.282Z,84.97
2019-03-10T02:57:44.016Z,88.07
2019-03-10T03:00:14.641Z,86.37
2019-03-10T03:02:45.493Z,95.20
2019-03-10T03:05:16.111Z,88.33
2019-03-10T03:07:48.275Z,93.40
2019-03-10T03:10:21.263Z,96.85
2019-03-10T03:12:52.197Z,103.12
2019-03-10T03:15:23.491Z,100.60
2019-03-10T03:17:53.866Z,100.90
2019-03-10T03:20:24.600Z,113.72
2019-03-10T03:22:56.047Z,102.85
2019-03-10T03:25:26.340Z,114.45
2019-03-10T03:27:56.900Z,113.70
2019-03-10T03:30:28.445Z,108.40
2019-03-10T03:32:58.861Z,118.97
2019-03-10T03:35:57.123Z,113.55
2019-03-10T03:38:36.729Z,121.20
2019-03-10T03:41:23.267Z,110.78
2019-03-10T03:43:55.467Z,114.00
2019-03-10T03:46:26.017Z,115.20
2019-03-10T03:48:57.336Z,103.92
2019-03-10T03:51:28.379Z,120.55
2019-03-10T03:53:58.806Z,111.75
2019-03-10T03:56:29.638Z,110.50
2019-03-10T03:59:00.613Z,108.85
2019-03-10T04:01:33.899Z,114.03
2019-03-10T04:04:06.546Z,115.03
2019-03-10T04:06:37.145Z,101.90
2019-03-10T04:09:10.266Z,116.60
2019-03-10T04:11:41.730Z,111.17
2019-03-10T04:14:12.005Z,112.15
2019-03-10T04:16:42.526Z,107.72
2019-03-10T04:19:13.396Z,102.95
2019-03-10T04:21:44.128Z,105.27
2019-03-10T04:24:14.959Z,110.30
2019-03-10T04:26:45.591Z,102.45
2019-03-10T04:29:16.840Z,98.97
2019-03-10T04:31:49.322Z,102.60
2019-03-10T04:34:19.969Z,101.70
2019-03-10T04:36:50.467Z,100.07
2019-03-10T04:39:21.097Z,101.58
2019-03-10T04:41:51.840Z,108.45
2019-03-10T04:44:22.565Z,95.57
2019-03-10T04:46:54.117Z,105.97
2019-03-10T04:49:24.441Z,99.55
2019-03-10T04:51:55.376Z,99.65
2019-03-10T04:54:31.318Z,99.10
2019-03-10T04:57:03.706Z,100.95
2019-03-10T04:59:35.233Z,106.07
2019-03-10T05:02:05.883Z,100.38
2019-03-10T05:04:38.943Z,98.78
2019-03-10T05:07:09.502Z,98.45
2019-03-10T05:09:40.442Z,96.82
2019-03-10T05:12:11.207Z,96.65
2019-03-10T05:14:43.027Z,103.15
2019-03-10T05:17:14.270Z,90.28
2019-03-10T05:19:44.526Z,94.67
2019-03-10T05:22:15.528Z,93.72
2019-03-10T05:24:47.696Z,86.97
2019-03-10T05:27:18.936Z,94.95
2019-03-10T05:29:49.362Z,87.75
2019-03-10T05:32:20.098Z,81.37
2019-03-10T05:34:52.674Z,88.03
2019-03-10T05:37:23.404Z,81.35
2019-03-10T05:39:55.716Z,79.22
2019-03-10T05:42:27.431Z,81.50
2019-03-10T05:44:58.066Z,74.15
2019-03-10T05:47:28.767Z,72.85
2019-03-10T05:50:01.061Z,78.55
2019-03-10T05:52:32.051Z,75.80
2019-03-10T05:55:03.166Z,78.07
2019-03-10T05:57:33.785Z,82.08
2019-03-10T06:00:07.676Z,82.00
2019-03-10T06:02:38.307Z,85.10
2019-03-10T06:05:09.143Z,71.57
2019-03-10T06:07:40.734Z,84.05
2019-03-10T06:10:11.077Z,90.38
2019-03-10T06:12:41.862Z,92.20
2019-03-10T06:15:12.539Z,86.72
2019-03-10T06:17:43.319Z,86.30
2019-03-10T06:20:13.948Z,81.25
2019-03-10T06:22:45.206Z,76.55
2019-03-10T06:25:15.824Z,80.30
2019-03-10T06:27:48.088Z,75.00
2019-03-10T06:30:20.257Z,68.95
2019-03-10T06:32:52.524Z,69.53
2019-03-10T06:35:23.261Z,60.88
2019-03-10T06:37:55.942Z,60.28
2019-03-10T06:40:32.108Z,67.08
2019-03-10T06:42:59.183Z,66.82
2019-03-10T06:45:29.975Z,70.12
2019-03-10T06:48:01.115Z,72.87
2019-03-10T06:50:34.101Z,82.17
2019-03-10T06:53:04.361Z,65.55
2019-03-10T06:55:35.156Z,60.70
2019-03-10T06:58:05.760Z,71.17
2019-03-10T07:00:36.317Z,61.25
2019-03-10T07:03:06.948Z,54.85
2019-03-10T07:05:37.270Z,56.45
2019-03-10T07:08:08.413Z,58.92
2019-03-10T07:10:41.091Z,56.00
2019-03-10T07:13:11.923Z,59.93
2019-03-10T07:15:42.867Z,52.45
2019-03-10T07:18:13.617Z,56.30
2019-03-10T07:20:44.528Z,54.63
2019-03-10T07:23:16.900Z,50.88
2019-03-10T07:25:49.376Z,54.45
2019-03-10T07:28:33.558Z,50.65
2019-03-10T07:31:05.730Z,54.75
2019-03-10T07:33:54.647Z,49.27
2019-03-10T07:36:43.711Z,57.38
2019-03-10T07:39:17.529Z,55.52
2019-03-10T07:41:50.197Z,56.00
2019-03-10T07:44:22.292Z,52.67
2019-03-10T07:46:58.416Z,48.15
2019-03-10T07:49:30.992Z,52.00
2019-03-10T07:52:20.678Z,56.73
2019-03-10T07:55:11.577Z,53.65
2019-03-10T07:58:04.636Z,62.48
2019-03-10T08:00:36.896Z,53.58
2019-03-10T08:03:11.926Z,58.68
2019-03-10T08:06:02.729Z,54.27
2019-03-10T08:08:38.283Z,55.70
2019-03-10T08:11:19.553Z,51.63
2019-03-10T08:13:57.251Z,55.17
2019-03-10T08:16:29.316Z,51.25
2019-03-10T08:19:07.492Z,63.58
2019-03-10T08:21:58.118Z,58.35
2019-03-10T08:24:34.587Z,55.43
2019-03-10T08:27:09.556Z,54.70
2019-03-10T08:29:44.959Z,55.28
2019-03-10T08:32:34.744Z,61.55
2019-03-10T08:35:13.977Z,67.70
2019-03-10T08:37:55.356Z,58.90
2019-03-10T08:40:37.719Z,66.20
2019-03-10T08:43:19.349Z,56.60
2019-03-10T08:46:01.448Z,60.60
2019-03-10T08:48:37.822Z,59.70
2019-03-10T08:51:15.812Z,58.87
2019-03-10T08:53:51.053Z,61.77
2019-03-10T08:56:30.075Z,68.75
2019-03-10T08:59:14.431Z,66.47
2019-03-10T09:01:50.487Z,56.75
2019-03-10T09:04:25.006Z,57.27
2019-03-10T09:07:13.656Z,56.60
2019-03-10T09:09:52.112Z,55.25
2019-03-10T09:12:25.977Z,62.83
2019-03-10T09:15:05.491Z,52.90
2019-03-10T09:17:40.860Z,59.93
2019-03-10T09:20:22.141Z,54.83
2019-03-10T09:23:06.633Z,58.25
2019-03-10T09:28:13.384Z,59.38
2019-03-10T09:30:58.041Z,55.10
2019-03-10T09:33:42.363Z,55.78
2019-03-10T09:36:20.194Z,51.75
2019-03-10T09:39:09.051Z,49.83
2019-03-10T09:41:58.855Z,54.27
2019-03-10T09:44:34.026Z,50.58
2019-03-10T09:47:09.309Z,51.35
2019-03-10T09:49:58.167Z,48.55
2019-03-10T09:52:33.644Z,41.00
2019-03-10T09:55:19.388Z,42.35
2019-03-10T09:57:54.934Z,43.63
2019-03-10T10:00:27.291Z,36.10
2019-03-10T10:03:00.495Z,40.85
2019-03-10T10:05:45.463Z,45.28
2019-03-10T10:08:26.847Z,30.00
2019-03-10T10:11:02.693Z,34.48
2019-03-10T10:13:35.534Z,33.80
2019-03-10T10:16:13.954Z,37.83
2019-03-10T10:18:46.975Z,28.12
2019-03-10T10:21:18.750Z,31.17
2019-03-10T10:23:51.818Z,31.23
2019-03-10T10:26:35.738Z,30.17
2019-03-10T10:29:23.839Z,25.65
2019-03-10T10:31:56.273Z,19.82
2019-03-10T10:34:31.512Z,31.37
2019-03-10T10:37:13.002Z,23.73
2019-03-10T10:40:02.574Z,21.17
2019-03-10T10:42:46.828Z,22.52
2019-03-10T10:45:25.023Z,24.30
2019-03-10T10:47:58.941Z,24.67
2019-03-10T10:50:43.289Z,23.83
2019-03-10T10:53:27.865Z,24.72
2019-03-10T10:56:09.545Z,20.02
2019-03-10T10:58:51.013Z,13.15
2019-03-10T11:01:26.048Z,14.78
2019-03-10T11:03:58.931Z,16.62
2019-03-10T11:06:31.202Z,16.95
2019-03-10T11:09:15.553Z,20.90
2019-03-10T11:12:00.989Z,20.23
2019-03-10T11:14:42.310Z,19.37
2019-03-10T11:17:17.759Z,20.45
2019-03-10T11:20:08.143Z,17.73
2019-03-10T11:22:55.468Z,18.07
2019-03-10T11:25:27.836Z,16.50
2019-03-10T11:28:01.052Z,20.00
2019-03-10T11:30:33.202Z,14.85
2019-03-10T11:33:07.240Z,22.60
2019-03-10T11:35:42.239Z,27.73
2019-03-10T11:38:14.916Z,17.37
2019-03-10T11:40:47.237Z,18.85
2019-03-10T11:43:37.268Z,20.85
2019-03-10T11:46:26.248Z,17.95
2019-03-10T11:49:04.844Z,21.57
2019-03-10T11:51:42.646Z,19.37
2019-03-10T11:54:14.872Z,19.92
2019-03-10T11:56:50.455Z,16.80
2019-03-10T11:59:34.400Z,19.92
2019-03-10T12:04:42.703Z,22.60
2019-03-10T12:07:17.454Z,17.42
2019-03-10T12:09:48.184Z,22.50
2019-03-10T12:12:18.818Z,23.42
2019-03-10T12:14:49.562Z,21.15
2019-03-10T12:17:23.655Z,16.62
2019-03-10T12:19:54.846Z,18.27
2019-03-10T12:22:26.500Z,13.85
2019-03-10T12:24:56.703Z,24.57
2019-03-10T12:27:27.509Z,16.10
2019-03-10T12:30:00.800Z,13.08
2019-03-10T12:32:33.381Z,15.75
2019-03-10T12:35:05.833Z,15.65
2019-03-10T12:37:36.080Z,16.75
2019-03-10T12:40:10.179Z,19.20
2019-03-10T12:42:41.018Z,17.12
2019-03-10T12:45:12.896Z,11.75
2019-03-10T12:47:44.130Z,15.40
2019-03-10T12:50:14.855Z,14.03
2019-03-10T12:52:45.073Z,19.48
2019-03-10T12:55:15.602Z,14.07
2019-03-10T12:57:47.768Z,12.37
2019-03-10T13:00:18.498Z,15.25
2019-03-10T13:02:49.847Z,10.03
2019-03-10T13:05:21.194Z,13.28
2019-03-10T13:07:54.387Z,13.08
2019-03-10T13:10:25.641Z,17.35
2019-03-10T13:12:56.266Z,18.75
2019-03-10T13:15:28.326Z,35.55
2019-03-10T13:17:59.290Z,31.05
2019-03-10T13:20:31.111Z,21.75
2019-03-10T13:23:03.153Z,16.73
2019-03-10T13:25:33.711Z,19.27
2019-03-10T13:28:04.151Z,11.93
2019-03-10T13:30:35.482Z,14.15
2019-03-10T13:33:05.599Z,14.95
2019-03-10T13:35:36.130Z,18.42
2019-03-10T13:38:10.478Z,17.80
2019-03-10T13:40:41.154Z,20.77
2019-03-10T13:43:11.495Z,21.77
2019-03-10T13:45:42.130Z,19.32
2019-03-10T13:48:12.655Z,18.23
2019-03-10T13:50:43.519Z,18.90
2019-03-10T13:53:14.523Z,22.07
2019-03-10T13:55:45.673Z,26.30
2019-03-10T13:58:15.900Z,21.27
2019-03-10T14:00:46.376Z,20.97
2019-03-10T14:03:17.764Z,24.67
2019-03-10T14:05:49.121Z,23.75
2019-03-10T14:08:19.630Z,23.45
2019-03-10T14:10:51.588Z,21.75
2019-03-10T14:13:22.191Z,24.45
2019-03-10T14:15:52.774Z,20.77
2019-03-10T14:18:23.799Z,21.15
2019-03-10T14:20:54.838Z,23.07
2019-03-10T14:23:25.268Z,22.30
2019-03-10T14:25:57.742Z,18.25
2019-03-10T14:28:29.906Z,16.57
2019-03-10T14:31:00.558Z,21.23
2019-03-10T14:33:31.366Z,21.85
2019-03-10T14:36:02.205Z,19.80
2019-03-10T14:38:32.693Z,20.15
2019-03-10T14:41:05.485Z,18.42
2019-03-10T14:43:35.645Z,16.12
2019-03-10T14:46:06.159Z,11.38
2019-03-10T14:48:36.788Z,13.53
2019-03-10T14:51:08.856Z,13.18
2019-03-10T14:53:39.481Z,17.32
2019-03-10T14:56:10.419Z,28.80
2019-03-10T14:58:41.253Z,27.45
2019-03-10T15:01:12.602Z,25.80
2019-03-10T15:03:43.031Z,25.25
2019-03-10T15:06:14.249Z,27.35
2019-03-10T15:08:46.420Z,22.70
2019-03-10T15:11:16.973Z,19.50
2019-03-10T15:13:47.800Z,19.12
2019-03-10T15:16:19.861Z,14.87
2019-03-10T15:18:52.952Z,9.43
2019-03-10T15:21:23.577Z,17.40
2019-03-10T15:23:56.264Z,18.17
2019-03-10T15:26:28.439Z,18.55
2019-03-10T15:28:58.950Z,33.33
2019-03-10T15:31:29.653Z,21.07
2019-03-10T15:34:01.241Z,25.68
2019-03-10T15:36:32.151Z,23.62
2019-03-10T15:39:03.628Z,27.40
2019-03-10T15:41:33.846Z,39.42
2019-03-10T15:44:04.681Z,49.30
2019-03-10T15:46:35.328Z,39.40
2019-03-10T15:49:05.836Z,36.28
2019-03-10T15:51:38.112Z,23.73
2019-03-10T15:54:08.644Z,26.27
2019-03-10T15:56:39.370Z,19.42
2019-03-10T15:59:10.535Z,16.67
2019-03-10T16:01:40.935Z,16.60
2019-03-10T16:04:17.114Z,19.25
2019-03-10T16:06:47.211Z,15.18
2019-03-10T16:09:17.762Z,23.02
2019-03-10T16:11:49.390Z,30.75
2019-03-10T16:14:22.296Z,44.80
2019-03-10T16:16:52.497Z,75.47
2019-03-10T16:19:23.956Z,108.32
2019-03-10T16:21:55.470Z,115.57
2019-03-10T16:24:26.949Z,110.42
2019-03-10T16:26:57.676Z,119.57
2019-03-10T16:29:28.005Z,129.00
2019-03-10T16:32:00.301Z,110.42
2019-03-10T16:34:32.638Z,80.90
2019-03-10T16:37:02.861Z,61.42
2019-03-10T16:39:33.390Z,53.90
2019-03-10T16:42:04.020Z,60.65
2019-03-10T16:44:35.365Z,58.92
2019-03-10T16:47:07.535Z,39.75
2019-03-10T16:49:38.159Z,33.67
2019-03-10T16:52:09.307Z,27.27
2019-03-10T16:54:39.651Z,36.13
2019-03-10T16:57:10.354Z,37.80
2019-03-10T16:59:40.890Z,38.38
2019-03-10T17:02:11.518Z,63.80
2019-03-10T17:04:42.213Z,36.28
2019-03-10T17:07:13.584Z,27.85
2019-03-10T17:09:43.982Z,26.30
2019-03-10T17:12:14.558Z,25.70
2019-03-10T17:14:45.899Z,26.12
2019-03-10T17:17:17.239Z,29.45
2019-03-10T17:19:47.770Z,29.32
2019-03-10T17:22:18.307Z,28.87
2019-03-10T17:24:48.828Z,24.63
2019-03-10T17:27:21.501Z,19.25
2019-03-10T17:29:52.235Z,18.65
2019-03-10T17:32:25.630Z,12.65
2019-03-10T17:34:56.059Z,16.90
2019-03-10T17:37:27.304Z,26.42
2019-03-10T17:39:59.570Z,28.27
2019-03-10T17:42:30.100Z,25.97
2019-03-10T17:45:00.800Z,26.50
2019-03-10T17:47:32.289Z,15.98
2019-03-10T17:50:02.702Z,11.25
2019-03-10T17:52:33.187Z,14.87
2019-03-10T17:55:04.971Z,12.73
2019-03-10T17:57:35.092Z,10.00
2019-03-10T18:00:14.172Z,9.70
2019-03-10T18:02:45.139Z,12.35
2019-03-10T18:05:15.702Z,13.13
2019-03-10T18:07:48.480Z,12.45
2019-03-10T18:10:19.111Z,9.75
2019-03-10T18:12:49.567Z,9.60
2019-03-10T18:15:20.952Z,15.80
2019-03-10T18:17:51.408Z,14.98
2019-03-10T18:20:24.167Z,23.67
2019-03-10T18:22:55.669Z,17.00
2019-03-10T18:25:27.570Z,16.32
2019-03-10T18:27:58.129Z,12.85
2019-03-10T18:30:29.135Z,13.50
2019-03-10T18:32:59.622Z,13.78
2019-03-10T18:35:31.204Z,8.45
2019-03-10T18:38:01.774Z,10.68
2019-03-10T18:40:32.507Z,10.60
2019-03-10T18:43:03.031Z,8.55
2019-03-10T18:45:33.666Z,7.67
2019-03-10T18:48:04.195Z,11.08
2019-03-10T18:50:35.643Z,8.98
2019-03-10T18:53:05.968Z,10.80
2019-03-10T18:55:36.593Z,12.00
2019-03-10T18:58:08.255Z,12.50
2019-03-10T19:00:38.731Z,10.32
2019-03-10T19:03:09.917Z,12.50
2019-03-10T19:05:40.752Z,22.07
2019-03-10T19:08:11.180Z,20.55
2019-03-10T19:10:41.780Z,27.37
2019-03-10T19:13:14.589Z,29.75
2019-03-10T19:15:46.240Z,45.08
2019-03-10T19:18:17.797Z,52.55
2019-03-10T19:20:47.976Z,57.40
2019-03-10T19:23:18.463Z,62.05
2019-03-10T19:25:50.914Z,44.18
2019-03-10T19:28:21.095Z,48.48
2019-03-10T19:30:52.481Z,45.67
2019-03-10T19:33:22.906Z,27.87
2019-03-10T19:35:53.538Z,21.45
2019-03-10T19:38:24.172Z,21.93
2019-03-10T19:40:54.693Z,22.77
2019-03-10T19:43:25.324Z,23.10
2019-03-10T19:45:55.823Z,22.15
2019-03-10T19:48:26.894Z,23.62
2019-03-10T19:50:57.112Z,29.63
2019-03-10T19:53:27.451Z,28.57
2019-03-10T19:55:58.680Z,26.82
2019-03-10T19:58:29.001Z,22.10
2019-03-10T20:00:59.732Z,26.45
2019-03-10T20:03:31.769Z,22.85
2019-03-10T20:06:02.735Z,26.23
2019-03-10T20:08:33.272Z,31.73
2019-03-10T20:11:04.202Z,29.80
2019-03-10T20:13:35.148Z,36.33
2019-03-10T20:16:06.690Z,35.63
2019-03-10T20:18:37.319Z,37.88
2019-03-10T20:21:07.908Z,39.05
2019-03-10T20:23:38.478Z,25.65
2019-03-10T20:26:09.518Z,23.47
2019-03-10T20:28:41.483Z,18.10
2019-03-10T20:31:11.904Z,19.48
2019-03-10T20:33:42.431Z,29.52
2019-03-10T20:36:12.979Z,35.68
2019-03-10T20:38:43.689Z,62.17
2019-03-10T20:41:14.728Z,88.70
2019-03-10T20:43:44.851Z,75.70
2019-03-10T20:46:15.479Z,77.85
2019-03-10T20:48:46.009Z,67.12
2019-03-10T20:51:18.480Z,60.58
2019-03-10T20:53:48.679Z,50.20
2019-03-10T20:56:19.058Z,54.08
2019-03-10T20:58:50.475Z,63.95
2019-03-10T21:01:21.537Z,63.48
2019-03-10T21:03:53.032Z,57.25
2019-03-10T21:06:23.999Z,33.40
2019-03-10T21:08:54.424Z,23.90
2019-03-10T21:11:25.671Z,19.77
2019-03-10T21:13:56.298Z,19.32
2019-03-10T21:16:26.855Z,23.12
2019-03-10T21:18:57.258Z,23.30
2019-03-10T21:21:27.783Z,18.55
2019-03-10T21:23:59.741Z,16.85
2019-03-10T21:26:30.387Z,22.50
2019-03-10T21:29:03.484Z,14.63
2019-03-10T21:31:32.863Z,16.27
2019-03-10T21:34:05.447Z,16.42
2019-03-10T21:36:37.473Z,13.28
2019-03-10T21:39:08.535Z,11.43
2019-03-10T21:41:39.166Z,18.30
2019-03-10T21:44:10.106Z,16.27
2019-03-10T21:46:40.532Z,13.08
2019-03-10T21:49:13.622Z,11.97
2019-03-10T21:51:44.770Z,15.38
2019-03-10T21:54:16.094Z,11.97
2019-03-10T21:56:46.338Z,10.78
2019-03-10T21:59:17.348Z,12.82
2019-03-10T22:01:47.999Z,10.88
2019-03-10T22:04:19.207Z,11.38
2019-03-10T22:06:49.665Z,9.28
2019-03-10T22:09:20.295Z,9.68
2019-03-10T22:11:53.283Z,10.15
2019-03-10T22:14:23.499Z,12.37
2019-03-10T22:16:54.017Z,10.98
2019-03-10T22:19:24.555Z,8.40
2019-03-10T22:21:55.073Z,8.65
2019-03-10T22:24:27.252Z,10.13
2019-03-10T22:26:58.496Z,8.58
2019-03-10T22:29:30.619Z,8.08
2019-03-10T22:32:01.905Z,9.03
2019-03-10T22:34:33.134Z,10.40
2019-03-10T22:37:03.822Z,10.10
2019-03-10T22:39:34.309Z,5.92
2019-03-10T22:42:04.940Z,9.85
2019-03-10T22:44:36.283Z,9.45
2019-03-10T22:47:06.916Z,9.25
2019-03-10T22:49:37.445Z,12.10
2019-03-10T22:52:08.091Z,14.15
2019-03-10T22:54:38.946Z,15.28
2019-03-10T22:57:09.822Z,17.05
2019-03-10T22:59:41.193Z,21.40
2019-03-10T23:02:13.884Z,19.90
2019-03-10T23:04:44.503Z,24.40
2019-03-10T23:07:15.234Z,22.27
2019-03-10T23:09:46.788Z,23.65
2019-03-10T23:12:18.600Z,21.60
2019-03-10T23:14:48.775Z,21.97
2019-03-10T23:17:19.759Z,21.68
2019-03-10T23:19:50.309Z,24.70
2019-03-10T23:22:21.166Z,20.17
2019-03-10T23:24:54.970Z,23.15
2019-03-10T23:27:25.421Z,23.98
2019-03-10T23:29:58.087Z,23.22
2019-03-10T23:32:29.169Z,25.60
2019-03-10T23:35:00.501Z,23.20
2019-03-10T23:37:32.725Z,23.45
2019-03-10T23:40:04.377Z,22.52
2019-03-10T23:42:34.912Z,22.42
2019-03-10T23:45:10.466Z,22.20
2019-03-10T23:47:40.885Z,25.08
2019-03-10T23:50:13.660Z,25.20
2019-03-10T23:52:44.392Z,23.12
2019-03-10T23:55:15.536Z,24.90
2019-03-10T23:57:45.677Z,24.75
